Alden, Kansas
Current Conditions -  °F | °C
As of 4:15 AM on Thursday 18 Dec 2014 (Local Time) from KHUT Reporting Station
Light Snow Light Snow  
Wind Chill: 25°   Ceiling: 1000
Heat Index: 30°   Visibility: 3mi
Dew Point: 26°   Wind: 5mph
Humidity: 85%   Direction: 40°NE
Pressure: 30.13"   Gusts: NA
Location:  38.24°N, 98.31°W
Report Text: KHUT 181015Z AUTO 04004KT 3SM -SN BR OVC010 M01/M03 A3013 RMK AO2 P0000 T10111033
Loading
Personal Weather Stations






























Interactive Weather Map New forecast layout! Learn more

10-Day Weather Forecast

Advertisements
Track Severe Weather on mobile